sensor_id;sensor_type;location;lat;lon;timestamp;P1;durP1;ratioP1;P2;durP2;ratioP2
69841;SDS011;57138;51.326;-0.068;2023-05-07T00:00:18;0.50;;;0.50;;
69841;SDS011;57138;51.326;-0.068;2023-05-07T00:02:44;0.10;;;0.10;;
69841;SDS011;57138;51.326;-0.068;2023-05-07T00:05:10;0.10;;;0.10;;
69841;SDS011;57138;51.326;-0.068;2023-05-07T00:07:36;0.10;;;0.10;;
69841;SDS011;57138;51.326;-0.068;2023-05-07T00:10:01;0.10;;;0.10;;
69841;SDS011;57138;51.326;-0.068;2023-05-07T00:12:27;0.10;;;0.10;;
69841;SDS011;57138;51.326;-0.068;2023-05-07T00:14:55;0.10;;;0.10;;
69841;SDS011;57138;51.326;-0.068;2023-05-07T00:17:20;0.10;;;0.10;;
69841;SDS011;57138;51.326;-0.068;2023-05-07T00:19:46;0.10;;;0.10;;
69841;SDS011;57138;51.326;-0.068;2023-05-07T00:22:11;0.10;;;0.10;;
69841;SDS011;57138;51.326;-0.068;2023-05-07T00:24:37;0.10;;;0.10;;
69841;SDS011;57138;51.326;-0.068;2023-05-07T00:27:02;0.10;;;0.10;;
69841;SDS011;57138;51.326;-0.068;2023-05-07T00:29:27;0.10;;;0.10;;
69841;SDS011;57138;51.326;-0.068;2023-05-07T00:31:53;0.10;;;0.10;;
69841;SDS011;57138;51.326;-0.068;2023-05-07T00:34:20;0.13;;;0.13;;
69841;SDS011;57138;51.326;-0.068;2023-05-07T00:36:45;1.77;;;1.08;;
69841;SDS011;57138;51.326;-0.068;2023-05-07T00:39:11;0.10;;;0.10;;
69841;SDS011;57138;51.326;-0.068;2023-05-07T00:41:36;0.10;;;0.10;;
69841;SDS011;57138;51.326;-0.068;2023-05-07T00:44:02;0.10;;;0.10;;
69841;SDS011;57138;51.326;-0.068;2023-05-07T00:46:27;0.15;;;0.15;;
69841;SDS011;57138;51.326;-0.068;2023-05-07T00:48:55;0.10;;;0.10;;
69841;SDS011;57138;51.326;-0.068;2023-05-07T00:51:20;0.10;;;0.10;;
69841;SDS011;57138;51.326;-0.068;2023-05-07T00:53:46;0.10;;;0.10;;
69841;SDS011;57138;51.326;-0.068;2023-05-07T00:56:13;0.10;;;0.10;;
69841;SDS011;57138;51.326;-0.068;2023-05-07T00:58:38;0.10;;;0.10;;
69841;SDS011;57138;51.326;-0.068;2023-05-07T01:01:04;0.10;;;0.10;;
69841;SDS011;57138;51.326;-0.068;2023-05-07T01:03:30;0.10;;;0.10;;
69841;SDS011;57138;51.326;-0.068;2023-05-07T01:05:55;0.10;;;0.10;;
69841;SDS011;57138;51.326;-0.068;2023-05-07T01:08:24;0.10;;;0.10;;
69841;SDS011;57138;51.326;-0.068;2023-05-07T01:10:51;0.10;;;0.10;;
69841;SDS011;57138;51.326;-0.068;2023-05-07T01:13:18;0.10;;;0.10;;
69841;SDS011;57138;51.326;-0.068;2023-05-07T01:15:45;0.10;;;0.10;;
69841;SDS011;57138;51.326;-0.068;2023-05-07T01:18:10;0.10;;;0.10;;
69841;SDS011;57138;51.326;-0.068;2023-05-07T01:20:36;0.10;;;0.10;;
69841;SDS011;57138;51.326;-0.068;2023-05-07T01:23:01;0.10;;;0.10;;
69841;SDS011;57138;51.326;-0.068;2023-05-07T01:25:28;0.10;;;0.10;;
69841;SDS011;57138;51.326;-0.068;2023-05-07T01:27:55;0.10;;;0.10;;
69841;SDS011;57138;51.326;-0.068;2023-05-07T01:30:20;0.10;;;0.10;;
69841;SDS011;57138;51.326;-0.068;2023-05-07T01:32:57;0.10;;;0.10;;
69841;SDS011;57138;51.326;-0.068;2023-05-07T01:35:36;0.10;;;0.10;;
69841;SDS011;57138;51.326;-0.068;2023-05-07T01:38:05;0.20;;;0.20;;
69841;SDS011;57138;51.326;-0.068;2023-05-07T01:40:31;0.10;;;0.10;;
69841;SDS011;57138;51.326;-0.068;2023-05-07T01:42:59;0.10;;;0.10;;
69841;SDS011;57138;51.326;-0.068;2023-05-07T01:45:25;0.10;;;0.10;;
69841;SDS011;57138;51.326;-0.068;2023-05-07T01:47:52;0.10;;;0.10;;
69841;SDS011;57138;51.326;-0.068;2023-05-07T01:50:18;0.10;;;0.10;;
69841;SDS011;57138;51.326;-0.068;2023-05-07T01:52:44;0.10;;;0.10;;
69841;SDS011;57138;51.326;-0.068;2023-05-07T01:55:10;0.10;;;0.10;;
69841;SDS011;57138;51.326;-0.068;2023-05-07T01:57:35;0.10;;;0.10;;
69841;SDS011;57138;51.326;-0.068;2023-05-07T02:00:01;0.10;;;0.10;;
69841;SDS011;57138;51.326;-0.068;2023-05-07T02:02:30;0.10;;;0.10;;
69841;SDS011;57138;51.326;-0.068;2023-05-07T02:04:56;0.10;;;0.10;;
69841;SDS011;57138;51.326;-0.068;2023-05-07T02:07:21;0.10;;;0.10;;
69841;SDS011;57138;51.326;-0.068;2023-05-07T02:09:47;0.10;;;0.10;;
69841;SDS011;57138;51.326;-0.068;2023-05-07T02:12:13;0.10;;;0.10;;
69841;SDS011;57138;51.326;-0.068;2023-05-07T02:14:38;0.10;;;0.10;;
69841;SDS011;57138;51.326;-0.068;2023-05-07T02:17:03;0.10;;;0.10;;
69841;SDS011;57138;51.326;-0.068;2023-05-07T02:19:29;0.10;;;0.10;;
69841;SDS011;57138;51.326;-0.068;2023-05-07T02:21:54;0.32;;;0.32;;
69841;SDS011;57138;51.326;-0.068;2023-05-07T02:24:20;0.10;;;0.10;;
69841;SDS011;57138;51.326;-0.068;2023-05-07T02:26:45;0.10;;;0.10;;
69841;SDS011;57138;51.326;-0.068;2023-05-07T02:29:11;0.10;;;0.10;;
69841;SDS011;57138;51.326;-0.068;2023-05-07T02:31:36;0.10;;;0.10;;
69841;SDS011;57138;51.326;-0.068;2023-05-07T02:34:02;0.10;;;0.10;;
69841;SDS011;57138;51.326;-0.068;2023-05-07T02:36:27;0.10;;;0.10;;
69841;SDS011;57138;51.326;-0.068;2023-05-07T02:38:53;0.20;;;0.20;;
69841;SDS011;57138;51.326;-0.068;2023-05-07T02:41:19;0.10;;;0.10;;
69841;SDS011;57138;51.326;-0.068;2023-05-07T02:43:45;0.10;;;0.10;;
69841;SDS011;57138;51.326;-0.068;2023-05-07T02:46:11;0.10;;;0.10;;
69841;SDS011;57138;51.326;-0.068;2023-05-07T02:48:36;0.10;;;0.10;;
69841;SDS011;57138;51.326;-0.068;2023-05-07T02:51:02;0.10;;;0.10;;
69841;SDS011;57138;51.326;-0.068;2023-05-07T02:53:28;0.10;;;0.10;;
69841;SDS011;57138;51.326;-0.068;2023-05-07T02:55:58;0.10;;;0.10;;
69841;SDS011;57138;51.326;-0.068;2023-05-07T02:58:25;0.10;;;0.10;;
69841;SDS011;57138;51.326;-0.068;2023-05-07T03:00:51;0.10;;;0.10;;
69841;SDS011;57138;51.326;-0.068;2023-05-07T03:03:17;0.10;;;0.10;;
69841;SDS011;57138;51.326;-0.068;2023-05-07T03:05:43;0.10;;;0.10;;
69841;SDS011;57138;51.326;-0.068;2023-05-07T03:08:08;0.10;;;0.10;;
69841;SDS011;57138;51.326;-0.068;2023-05-07T03:10:35;0.32;;;0.32;;
69841;SDS011;57138;51.326;-0.068;2023-05-07T03:13:01;0.10;;;0.10;;
69841;SDS011;57138;51.326;-0.068;2023-05-07T03:15:26;0.10;;;0.10;;
69841;SDS011;57138;51.326;-0.068;2023-05-07T03:17:52;0.10;;;0.10;;
69841;SDS011;57138;51.326;-0.068;2023-05-07T03:20:18;0.10;;;0.10;;
69841;SDS011;57138;51.326;-0.068;2023-05-07T03:22:43;0.10;;;0.10;;
69841;SDS011;57138;51.326;-0.068;2023-05-07T03:25:10;0.10;;;0.10;;
69841;SDS011;57138;51.326;-0.068;2023-05-07T03:27:35;2.35;;;0.52;;
69841;SDS011;57138;51.326;-0.068;2023-05-07T03:30:01;0.10;;;0.10;;
69841;SDS011;57138;51.326;-0.068;2023-05-07T03:32:26;0.10;;;0.10;;
69841;SDS011;57138;51.326;-0.068;2023-05-07T03:34:52;0.10;;;0.10;;
69841;SDS011;57138;51.326;-0.068;2023-05-07T03:37:17;0.17;;;0.17;;
69841;SDS011;57138;51.326;-0.068;2023-05-07T03:39:43;0.10;;;0.10;;
69841;SDS011;57138;51.326;-0.068;2023-05-07T03:42:08;0.10;;;0.10;;
69841;SDS011;57138;51.326;-0.068;2023-05-07T03:44:34;0.10;;;0.10;;
69841;SDS011;57138;51.326;-0.068;2023-05-07T03:47:01;0.10;;;0.10;;
69841;SDS011;57138;51.326;-0.068;2023-05-07T03:49:26;0.10;;;0.10;;
69841;SDS011;57138;51.326;-0.068;2023-05-07T03:51:52;0.10;;;0.10;;
69841;SDS011;57138;51.326;-0.068;2023-05-07T03:54:17;0.10;;;0.10;;
69841;SDS011;57138;51.326;-0.068;2023-05-07T03:56:42;0.10;;;0.10;;
69841;SDS011;57138;51.326;-0.068;2023-05-07T03:59:08;0.45;;;0.40;;
69841;SDS011;57138;51.326;-0.068;2023-05-07T04:01:34;0.10;;;0.10;;
69841;SDS011;57138;51.326;-0.068;2023-05-07T04:04:01;0.20;;;0.20;;
69841;SDS011;57138;51.326;-0.068;2023-05-07T04:06:30;0.10;;;0.10;;
69841;SDS011;57138;51.326;-0.068;2023-05-07T04:08:56;0.10;;;0.10;;
69841;SDS011;57138;51.326;-0.068;2023-05-07T04:11:22;0.10;;;0.10;;
69841;SDS011;57138;51.326;-0.068;2023-05-07T04:13:47;0.10;;;0.10;;
69841;SDS011;57138;51.326;-0.068;2023-05-07T04:16:13;0.10;;;0.10;;
69841;SDS011;57138;51.326;-0.068;2023-05-07T04:18:38;0.10;;;0.10;;
69841;SDS011;57138;51.326;-0.068;2023-05-07T04:21:04;0.10;;;0.10;;
69841;SDS011;57138;51.326;-0.068;2023-05-07T04:23:30;0.10;;;0.10;;
69841;SDS011;57138;51.326;-0.068;2023-05-07T04:25:55;0.10;;;0.10;;
69841;SDS011;57138;51.326;-0.068;2023-05-07T04:28:22;0.15;;;0.15;;
69841;SDS011;57138;51.326;-0.068;2023-05-07T04:30:48;0.22;;;0.22;;
69841;SDS011;57138;51.326;-0.068;2023-05-07T04:33:14;0.10;;;0.10;;
69841;SDS011;57138;51.326;-0.068;2023-05-07T04:35:41;0.10;;;0.10;;
69841;SDS011;57138;51.326;-0.068;2023-05-07T04:38:07;0.10;;;0.10;;
69841;SDS011;57138;51.326;-0.068;2023-05-07T04:40:33;0.10;;;0.10;;
69841;SDS011;57138;51.326;-0.068;2023-05-07T04:43:00;0.10;;;0.10;;
69841;SDS011;57138;51.326;-0.068;2023-05-07T04:45:26;0.10;;;0.10;;
69841;SDS011;57138;51.326;-0.068;2023-05-07T04:47:51;0.10;;;0.10;;
69841;SDS011;57138;51.326;-0.068;2023-05-07T04:50:17;0.55;;;0.55;;
69841;SDS011;57138;51.326;-0.068;2023-05-07T04:52:44;0.10;;;0.10;;
69841;SDS011;57138;51.326;-0.068;2023-05-07T04:55:10;0.10;;;0.10;;
69841;SDS011;57138;51.326;-0.068;2023-05-07T04:57:35;0.10;;;0.10;;
69841;SDS011;57138;51.326;-0.068;2023-05-07T05:00:01;0.10;;;0.10;;
69841;SDS011;57138;51.326;-0.068;2023-05-07T05:02:28;0.10;;;0.10;;
69841;SDS011;57138;51.326;-0.068;2023-05-07T05:04:53;0.10;;;0.10;;
69841;SDS011;57138;51.326;-0.068;2023-05-07T05:07:18;0.10;;;0.10;;
69841;SDS011;57138;51.326;-0.068;2023-05-07T05:09:44;0.10;;;0.10;;
69841;SDS011;57138;51.326;-0.068;2023-05-07T05:12:09;0.10;;;0.10;;
69841;SDS011;57138;51.326;-0.068;2023-05-07T05:14:35;0.10;;;0.10;;
69841;SDS011;57138;51.326;-0.068;2023-05-07T05:17:00;0.10;;;0.10;;
69841;SDS011;57138;51.326;-0.068;2023-05-07T05:19:25;0.10;;;0.10;;
69841;SDS011;57138;51.326;-0.068;2023-05-07T05:21:51;0.10;;;0.10;;
69841;SDS011;57138;51.326;-0.068;2023-05-07T05:24:16;0.10;;;0.10;;
69841;SDS011;57138;51.326;-0.068;2023-05-07T05:26:41;0.10;;;0.10;;
69841;SDS011;57138;51.326;-0.068;2023-05-07T05:29:07;0.10;;;0.10;;
69841;SDS011;57138;51.326;-0.068;2023-05-07T05:31:33;0.10;;;0.10;;
69841;SDS011;57138;51.326;-0.068;2023-05-07T05:33:59;0.10;;;0.10;;
69841;SDS011;57138;51.326;-0.068;2023-05-07T05:36:24;0.17;;;0.17;;
69841;SDS011;57138;51.326;-0.068;2023-05-07T05:38:49;0.10;;;0.10;;
69841;SDS011;57138;51.326;-0.068;2023-05-07T05:41:16;0.10;;;0.10;;
69841;SDS011;57138;51.326;-0.068;2023-05-07T05:43:41;0.35;;;0.35;;
69841;SDS011;57138;51.326;-0.068;2023-05-07T05:46:06;0.10;;;0.10;;
69841;SDS011;57138;51.326;-0.068;2023-05-07T05:48:34;0.10;;;0.10;;
69841;SDS011;57138;51.326;-0.068;2023-05-07T05:50:59;0.20;;;0.20;;
69841;SDS011;57138;51.326;-0.068;2023-05-07T05:53:25;0.10;;;0.10;;
69841;SDS011;57138;51.326;-0.068;2023-05-07T05:55:50;0.10;;;0.10;;
69841;SDS011;57138;51.326;-0.068;2023-05-07T05:58:16;0.10;;;0.10;;
69841;SDS011;57138;51.326;-0.068;2023-05-07T06:00:41;0.20;;;0.20;;
69841;SDS011;57138;51.326;-0.068;2023-05-07T06:03:07;0.20;;;0.20;;
69841;SDS011;57138;51.326;-0.068;2023-05-07T06:05:32;0.10;;;0.10;;
69841;SDS011;57138;51.326;-0.068;2023-05-07T06:07:57;0.10;;;0.10;;
69841;SDS011;57138;51.326;-0.068;2023-05-07T06:10:23;0.10;;;0.10;;
69841;SDS011;57138;51.326;-0.068;2023-05-07T06:12:49;0.10;;;0.10;;
69841;SDS011;57138;51.326;-0.068;2023-05-07T06:15:14;0.10;;;0.10;;
69841;SDS011;57138;51.326;-0.068;2023-05-07T06:17:40;0.10;;;0.10;;
69841;SDS011;57138;51.326;-0.068;2023-05-07T06:20:05;0.10;;;0.10;;
69841;SDS011;57138;51.326;-0.068;2023-05-07T06:22:31;0.10;;;0.10;;
69841;SDS011;57138;51.326;-0.068;2023-05-07T06:24:56;0.10;;;0.10;;
69841;SDS011;57138;51.326;-0.068;2023-05-07T06:27:22;0.30;;;0.30;;
69841;SDS011;57138;51.326;-0.068;2023-05-07T06:29:48;0.30;;;0.30;;
69841;SDS011;57138;51.326;-0.068;2023-05-07T06:32:13;0.10;;;0.10;;
69841;SDS011;57138;51.326;-0.068;2023-05-07T06:34:39;0.10;;;0.10;;
69841;SDS011;57138;51.326;-0.068;2023-05-07T06:37:05;0.10;;;0.10;;
69841;SDS011;57138;51.326;-0.068;2023-05-07T06:39:31;0.57;;;0.57;;
69841;SDS011;57138;51.326;-0.068;2023-05-07T06:41:57;0.10;;;0.10;;
69841;SDS011;57138;51.326;-0.068;2023-05-07T06:44:23;0.25;;;0.25;;
69841;SDS011;57138;51.326;-0.068;2023-05-07T06:46:48;0.20;;;0.20;;
69841;SDS011;57138;51.326;-0.068;2023-05-07T06:49:14;0.10;;;0.10;;
69841;SDS011;57138;51.326;-0.068;2023-05-07T06:51:40;0.10;;;0.10;;
69841;SDS011;57138;51.326;-0.068;2023-05-07T06:54:05;0.10;;;0.10;;
69841;SDS011;57138;51.326;-0.068;2023-05-07T06:56:31;0.10;;;0.10;;
69841;SDS011;57138;51.326;-0.068;2023-05-07T06:58:59;0.10;;;0.10;;
69841;SDS011;57138;51.326;-0.068;2023-05-07T07:01:26;0.10;;;0.10;;
69841;SDS011;57138;51.326;-0.068;2023-05-07T07:03:51;0.10;;;0.10;;
69841;SDS011;57138;51.326;-0.068;2023-05-07T07:06:17;0.10;;;0.10;;
69841;SDS011;57138;51.326;-0.068;2023-05-07T07:08:42;0.10;;;0.10;;
69841;SDS011;57138;51.326;-0.068;2023-05-07T07:11:08;0.10;;;0.10;;
69841;SDS011;57138;51.326;-0.068;2023-05-07T07:13:35;0.32;;;0.32;;
69841;SDS011;57138;51.326;-0.068;2023-05-07T07:16:00;0.10;;;0.10;;
69841;SDS011;57138;51.326;-0.068;2023-05-07T07:18:26;0.10;;;0.10;;
69841;SDS011;57138;51.326;-0.068;2023-05-07T07:20:51;0.10;;;0.10;;
69841;SDS011;57138;51.326;-0.068;2023-05-07T07:23:16;0.10;;;0.10;;
69841;SDS011;57138;51.326;-0.068;2023-05-07T07:25:42;0.45;;;0.45;;
69841;SDS011;57138;51.326;-0.068;2023-05-07T07:28:07;0.10;;;0.10;;
69841;SDS011;57138;51.326;-0.068;2023-05-07T07:30:33;0.10;;;0.10;;
69841;SDS011;57138;51.326;-0.068;2023-05-07T07:32:58;0.10;;;0.10;;
69841;SDS011;57138;51.326;-0.068;2023-05-07T07:35:30;0.10;;;0.10;;
69841;SDS011;57138;51.326;-0.068;2023-05-07T07:37:56;0.10;;;0.10;;
69841;SDS011;57138;51.326;-0.068;2023-05-07T07:40:22;0.10;;;0.10;;
69841;SDS011;57138;51.326;-0.068;2023-05-07T07:42:48;0.10;;;0.10;;
69841;SDS011;57138;51.326;-0.068;2023-05-07T07:45:13;0.10;;;0.10;;
69841;SDS011;57138;51.326;-0.068;2023-05-07T07:47:39;0.10;;;0.10;;
69841;SDS011;57138;51.326;-0.068;2023-05-07T07:50:05;0.10;;;0.10;;
69841;SDS011;57138;51.326;-0.068;2023-05-07T07:52:31;0.10;;;0.10;;
69841;SDS011;57138;51.326;-0.068;2023-05-07T07:54:57;0.10;;;0.10;;
69841;SDS011;57138;51.326;-0.068;2023-05-07T07:57:22;0.10;;;0.10;;
69841;SDS011;57138;51.326;-0.068;2023-05-07T07:59:48;0.10;;;0.10;;
69841;SDS011;57138;51.326;-0.068;2023-05-07T08:02:15;0.10;;;0.10;;
69841;SDS011;57138;51.326;-0.068;2023-05-07T08:04:43;0.10;;;0.10;;
69841;SDS011;57138;51.326;-0.068;2023-05-07T08:07:09;0.13;;;0.13;;
69841;SDS011;57138;51.326;-0.068;2023-05-07T08:09:35;0.10;;;0.10;;
69841;SDS011;57138;51.326;-0.068;2023-05-07T08:12:02;0.10;;;0.10;;
69841;SDS011;57138;51.326;-0.068;2023-05-07T08:14:27;0.10;;;0.10;;
69841;SDS011;57138;51.326;-0.068;2023-05-07T08:16:53;0.10;;;0.10;;
69841;SDS011;57138;51.326;-0.068;2023-05-07T08:19:19;0.17;;;0.17;;
69841;SDS011;57138;51.326;-0.068;2023-05-07T08:21:45;0.10;;;0.10;;
69841;SDS011;57138;51.326;-0.068;2023-05-07T08:24:12;0.10;;;0.10;;
69841;SDS011;57138;51.326;-0.068;2023-05-07T08:26:38;0.10;;;0.10;;
69841;SDS011;57138;51.326;-0.068;2023-05-07T08:29:04;0.85;;;0.70;;
69841;SDS011;57138;51.326;-0.068;2023-05-07T08:31:30;0.10;;;0.10;;
69841;SDS011;57138;51.326;-0.068;2023-05-07T08:33:55;0.10;;;0.10;;
69841;SDS011;57138;51.326;-0.068;2023-05-07T08:36:22;0.10;;;0.10;;
69841;SDS011;57138;51.326;-0.068;2023-05-07T08:38:47;0.10;;;0.10;;
69841;SDS011;57138;51.326;-0.068;2023-05-07T08:41:14;0.50;;;0.50;;
69841;SDS011;57138;51.326;-0.068;2023-05-07T08:43:40;0.10;;;0.10;;
69841;SDS011;57138;51.326;-0.068;2023-05-07T08:46:06;0.10;;;0.10;;
69841;SDS011;57138;51.326;-0.068;2023-05-07T08:48:34;0.10;;;0.10;;
69841;SDS011;57138;51.326;-0.068;2023-05-07T08:51:00;0.10;;;0.10;;
69841;SDS011;57138;51.326;-0.068;2023-05-07T08:53:26;0.10;;;0.10;;
69841;SDS011;57138;51.326;-0.068;2023-05-07T08:55:51;0.10;;;0.10;;
69841;SDS011;57138;51.326;-0.068;2023-05-07T08:58:18;0.50;;;0.50;;
69841;SDS011;57138;51.326;-0.068;2023-05-07T09:00:44;0.10;;;0.10;;
69841;SDS011;57138;51.326;-0.068;2023-05-07T09:03:09;1.85;;;1.38;;
69841;SDS011;57138;51.326;-0.068;2023-05-07T09:05:39;0.10;;;0.10;;
69841;SDS011;57138;51.326;-0.068;2023-05-07T09:08:05;0.10;;;0.10;;
69841;SDS011;57138;51.326;-0.068;2023-05-07T09:10:35;0.10;;;0.10;;
69841;SDS011;57138;51.326;-0.068;2023-05-07T09:13:00;0.10;;;0.10;;
69841;SDS011;57138;51.326;-0.068;2023-05-07T09:15:28;0.10;;;0.10;;
69841;SDS011;57138;51.326;-0.068;2023-05-07T09:17:53;0.10;;;0.10;;
69841;SDS011;57138;51.326;-0.068;2023-05-07T09:20:19;0.10;;;0.10;;
69841;SDS011;57138;51.326;-0.068;2023-05-07T09:22:44;0.10;;;0.10;;
69841;SDS011;57138;51.326;-0.068;2023-05-07T09:25:10;0.10;;;0.10;;
69841;SDS011;57138;51.326;-0.068;2023-05-07T09:27:35;0.10;;;0.10;;
69841;SDS011;57138;51.326;-0.068;2023-05-07T09:30:07;0.10;;;0.10;;
69841;SDS011;57138;51.326;-0.068;2023-05-07T09:32:36;0.10;;;0.10;;
69841;SDS011;57138;51.326;-0.068;2023-05-07T09:35:06;0.10;;;0.10;;
69841;SDS011;57138;51.326;-0.068;2023-05-07T09:37:39;0.10;;;0.10;;
69841;SDS011;57138;51.326;-0.068;2023-05-07T09:40:06;0.10;;;0.10;;
69841;SDS011;57138;51.326;-0.068;2023-05-07T09:42:32;0.10;;;0.10;;
69841;SDS011;57138;51.326;-0.068;2023-05-07T09:44:58;0.40;;;0.40;;
69841;SDS011;57138;51.326;-0.068;2023-05-07T09:47:24;0.20;;;0.20;;
69841;SDS011;57138;51.326;-0.068;2023-05-07T09:49:50;0.10;;;0.10;;
69841;SDS011;57138;51.326;-0.068;2023-05-07T09:52:21;0.10;;;0.10;;
69841;SDS011;57138;51.326;-0.068;2023-05-07T09:54:48;0.10;;;0.10;;
69841;SDS011;57138;51.326;-0.068;2023-05-07T09:57:15;0.10;;;0.10;;
69841;SDS011;57138;51.326;-0.068;2023-05-07T09:59:42;0.10;;;0.10;;
69841;SDS011;57138;51.326;-0.068;2023-05-07T10:02:08;0.10;;;0.10;;
69841;SDS011;57138;51.326;-0.068;2023-05-07T10:04:35;0.10;;;0.10;;
69841;SDS011;57138;51.326;-0.068;2023-05-07T10:07:01;0.10;;;0.10;;
69841;SDS011;57138;51.326;-0.068;2023-05-07T10:09:28;0.10;;;0.10;;
69841;SDS011;57138;51.326;-0.068;2023-05-07T10:11:54;0.22;;;0.22;;
69841;SDS011;57138;51.326;-0.068;2023-05-07T10:14:20;0.15;;;0.15;;
69841;SDS011;57138;51.326;-0.068;2023-05-07T10:16:46;0.10;;;0.10;;
69841;SDS011;57138;51.326;-0.068;2023-05-07T10:19:13;0.65;;;0.65;;
69841;SDS011;57138;51.326;-0.068;2023-05-07T10:21:42;0.10;;;0.10;;
69841;SDS011;57138;51.326;-0.068;2023-05-07T10:24:20;0.10;;;0.10;;
69841;SDS011;57138;51.326;-0.068;2023-05-07T10:26:51;0.10;;;0.10;;
69841;SDS011;57138;51.326;-0.068;2023-05-07T10:29:25;0.10;;;0.10;;
69841;SDS011;57138;51.326;-0.068;2023-05-07T10:31:59;0.10;;;0.10;;
69841;SDS011;57138;51.326;-0.068;2023-05-07T10:34:32;0.10;;;0.10;;
69841;SDS011;57138;51.326;-0.068;2023-05-07T10:37:02;0.30;;;0.20;;
69841;SDS011;57138;51.326;-0.068;2023-05-07T10:39:29;0.10;;;0.10;;
69841;SDS011;57138;51.326;-0.068;2023-05-07T10:41:55;0.10;;;0.10;;
69841;SDS011;57138;51.326;-0.068;2023-05-07T10:44:25;0.10;;;0.10;;
69841;SDS011;57138;51.326;-0.068;2023-05-07T10:47:10;0.10;;;0.10;;
69841;SDS011;57138;51.326;-0.068;2023-05-07T10:49:48;0.10;;;0.10;;
69841;SDS011;57138;51.326;-0.068;2023-05-07T10:52:30;0.30;;;0.30;;
69841;SDS011;57138;51.326;-0.068;2023-05-07T10:55:41;0.10;;;0.10;;
69841;SDS011;57138;51.326;-0.068;2023-05-07T11:00:40;0.10;;;0.10;;
69841;SDS011;57138;51.326;-0.068;2023-05-07T11:05:26;0.30;;;0.30;;
69841;SDS011;57138;51.326;-0.068;2023-05-07T11:07:57;0.10;;;0.10;;
69841;SDS011;57138;51.326;-0.068;2023-05-07T11:13:16;0.10;;;0.10;;
69841;SDS011;57138;51.326;-0.068;2023-05-07T11:15:45;0.10;;;0.10;;
69841;SDS011;57138;51.326;-0.068;2023-05-07T11:18:12;0.40;;;0.40;;
69841;SDS011;57138;51.326;-0.068;2023-05-07T11:20:45;0.10;;;0.10;;
69841;SDS011;57138;51.326;-0.068;2023-05-07T11:26:20;0.17;;;0.17;;
69841;SDS011;57138;51.326;-0.068;2023-05-07T11:28:49;0.10;;;0.10;;
69841;SDS011;57138;51.326;-0.068;2023-05-07T11:31:17;0.45;;;0.45;;
69841;SDS011;57138;51.326;-0.068;2023-05-07T11:33:51;11.05;;;6.63;;
69841;SDS011;57138;51.326;-0.068;2023-05-07T11:36:17;10.02;;;6.50;;
69841;SDS011;57138;51.326;-0.068;2023-05-07T11:38:44;9.60;;;5.53;;
69841;SDS011;57138;51.326;-0.068;2023-05-07T11:41:10;9.07;;;5.60;;
69841;SDS011;57138;51.326;-0.068;2023-05-07T11:43:36;8.00;;;5.13;;
69841;SDS011;57138;51.326;-0.068;2023-05-07T11:46:06;7.00;;;4.60;;
69841;SDS011;57138;51.326;-0.068;2023-05-07T11:48:32;7.63;;;5.43;;
69841;SDS011;57138;51.326;-0.068;2023-05-07T11:51:00;8.30;;;5.60;;
69841;SDS011;57138;51.326;-0.068;2023-05-07T11:53:27;7.15;;;5.07;;
69841;SDS011;57138;51.326;-0.068;2023-05-07T11:55:59;7.22;;;5.18;;
69841;SDS011;57138;51.326;-0.068;2023-05-07T11:58:25;8.30;;;5.53;;
69841;SDS011;57138;51.326;-0.068;2023-05-07T12:00:51;7.82;;;5.60;;
69841;SDS011;57138;51.326;-0.068;2023-05-07T12:03:18;9.70;;;5.50;;
69841;SDS011;57138;51.326;-0.068;2023-05-07T12:05:44;7.53;;;4.88;;
69841;SDS011;57138;51.326;-0.068;2023-05-07T12:08:16;8.23;;;4.60;;
69841;SDS011;57138;51.326;-0.068;2023-05-07T12:10:43;9.95;;;4.78;;
69841;SDS011;57138;51.326;-0.068;2023-05-07T12:13:19;5.30;;;3.95;;
69841;SDS011;57138;51.326;-0.068;2023-05-07T12:15:46;6.15;;;3.95;;
69841;SDS011;57138;51.326;-0.068;2023-05-07T12:18:15;6.90;;;3.97;;
69841;SDS011;57138;51.326;-0.068;2023-05-07T12:20:40;6.13;;;4.20;;
69841;SDS011;57138;51.326;-0.068;2023-05-07T12:23:06;9.75;;;4.15;;
69841;SDS011;57138;51.326;-0.068;2023-05-07T12:25:34;6.88;;;4.30;;
69841;SDS011;57138;51.326;-0.068;2023-05-07T12:28:01;5.82;;;3.70;;
69841;SDS011;57138;51.326;-0.068;2023-05-07T12:30:28;8.75;;;4.72;;
69841;SDS011;57138;51.326;-0.068;2023-05-07T12:32:54;7.10;;;4.53;;
69841;SDS011;57138;51.326;-0.068;2023-05-07T12:35:31;8.55;;;3.80;;
69841;SDS011;57138;51.326;-0.068;2023-05-07T12:38:15;9.27;;;4.32;;
69841;SDS011;57138;51.326;-0.068;2023-05-07T12:40:45;7.15;;;3.60;;
69841;SDS011;57138;51.326;-0.068;2023-05-07T12:43:16;7.90;;;3.22;;
69841;SDS011;57138;51.326;-0.068;2023-05-07T12:45:46;9.02;;;3.63;;
69841;SDS011;57138;51.326;-0.068;2023-05-07T12:48:13;6.85;;;3.90;;
69841;SDS011;57138;51.326;-0.068;2023-05-07T12:50:39;5.75;;;3.67;;
69841;SDS011;57138;51.326;-0.068;2023-05-07T12:53:05;6.80;;;2.90;;
69841;SDS011;57138;51.326;-0.068;2023-05-07T12:55:34;7.90;;;4.07;;
69841;SDS011;57138;51.326;-0.068;2023-05-07T12:58:06;5.28;;;2.70;;
69841;SDS011;57138;51.326;-0.068;2023-05-07T13:00:38;8.52;;;2.80;;
69841;SDS011;57138;51.326;-0.068;2023-05-07T13:03:03;4.45;;;2.60;;
69841;SDS011;57138;51.326;-0.068;2023-05-07T13:05:30;4.78;;;2.90;;
69841;SDS011;57138;51.326;-0.068;2023-05-07T13:07:56;6.82;;;3.00;;
69841;SDS011;57138;51.326;-0.068;2023-05-07T13:10:22;5.03;;;3.05;;
69841;SDS011;57138;51.326;-0.068;2023-05-07T13:12:49;4.55;;;2.65;;
69841;SDS011;57138;51.326;-0.068;2023-05-07T13:15:14;7.13;;;3.35;;
69841;SDS011;57138;51.326;-0.068;2023-05-07T13:17:41;3.95;;;2.67;;
69841;SDS011;57138;51.326;-0.068;2023-05-07T13:20:08;4.85;;;2.70;;
69841;SDS011;57138;51.326;-0.068;2023-05-07T13:22:36;6.03;;;2.30;;
69841;SDS011;57138;51.326;-0.068;2023-05-07T13:25:02;4.55;;;2.75;;
69841;SDS011;57138;51.326;-0.068;2023-05-07T13:27:27;5.63;;;2.65;;
69841;SDS011;57138;51.326;-0.068;2023-05-07T13:29:55;5.68;;;2.20;;
69841;SDS011;57138;51.326;-0.068;2023-05-07T13:32:21;4.40;;;2.40;;
69841;SDS011;57138;51.326;-0.068;2023-05-07T13:34:47;6.10;;;2.50;;
69841;SDS011;57138;51.326;-0.068;2023-05-07T13:37:13;5.18;;;2.45;;
69841;SDS011;57138;51.326;-0.068;2023-05-07T13:39:38;5.72;;;2.30;;
69841;SDS011;57138;51.326;-0.068;2023-05-07T13:42:04;6.68;;;3.00;;
69841;SDS011;57138;51.326;-0.068;2023-05-07T13:44:29;4.65;;;2.20;;
69841;SDS011;57138;51.326;-0.068;2023-05-07T13:46:55;4.13;;;2.38;;
69841;SDS011;57138;51.326;-0.068;2023-05-07T13:49:20;4.30;;;1.83;;
69841;SDS011;57138;51.326;-0.068;2023-05-07T13:51:46;6.95;;;2.40;;
69841;SDS011;57138;51.326;-0.068;2023-05-07T13:54:11;5.30;;;2.20;;
69841;SDS011;57138;51.326;-0.068;2023-05-07T13:56:37;5.57;;;2.42;;
69841;SDS011;57138;51.326;-0.068;2023-05-07T13:59:02;4.43;;;2.40;;
69841;SDS011;57138;51.326;-0.068;2023-05-07T14:01:28;4.85;;;2.20;;
69841;SDS011;57138;51.326;-0.068;2023-05-07T14:03:53;5.15;;;2.50;;
69841;SDS011;57138;51.326;-0.068;2023-05-07T14:06:19;4.90;;;2.45;;
69841;SDS011;57138;51.326;-0.068;2023-05-07T14:08:44;6.50;;;2.40;;
69841;SDS011;57138;51.326;-0.068;2023-05-07T14:11:10;4.72;;;2.33;;
69841;SDS011;57138;51.326;-0.068;2023-05-07T14:13:35;5.10;;;2.70;;
69841;SDS011;57138;51.326;-0.068;2023-05-07T14:16:01;5.80;;;2.63;;
69841;SDS011;57138;51.326;-0.068;2023-05-07T14:18:26;5.95;;;2.38;;
69841;SDS011;57138;51.326;-0.068;2023-05-07T14:20:55;4.00;;;2.03;;
69841;SDS011;57138;51.326;-0.068;2023-05-07T14:23:20;4.43;;;2.25;;
69841;SDS011;57138;51.326;-0.068;2023-05-07T14:25:51;4.35;;;1.90;;
69841;SDS011;57138;51.326;-0.068;2023-05-07T14:28:20;6.15;;;2.00;;
69841;SDS011;57138;51.326;-0.068;2023-05-07T14:30:46;5.38;;;2.00;;
69841;SDS011;57138;51.326;-0.068;2023-05-07T14:33:12;5.55;;;2.45;;
69841;SDS011;57138;51.326;-0.068;2023-05-07T14:35:37;5.70;;;2.45;;
69841;SDS011;57138;51.326;-0.068;2023-05-07T14:38:02;4.32;;;2.20;;
69841;SDS011;57138;51.326;-0.068;2023-05-07T14:40:28;3.95;;;2.03;;